Time;durP1;ratioP1;P1;durP2;ratioP2;P2;SDS_P1;SDS_P2;PMS_P1;PMS_P2;Temp;Humidity;BMP_temperature;BMP_pressure;BME280_temperature;BME280_humidity;BME280_pressure;Samples;Min_cycle;Max_cycle;Signal;HPM_P1;HPM_P2
2022/08/18 00:00:54;;;;;;;17.83;10.57;;;19.10;69.50;;;15.26;98.77;95349.53;4914237;29;20181;-54
2022/08/18 00:03:25;;;;;;;20.70;11.32;;;19.10;69.50;;;15.24;98.49;95349.06;4929617;29;20550;-50
2022/08/18 00:05:54;;;;;;;18.35;11.48;;;19.10;69.70;;;15.24;98.70;95347.19;4913730;29;20114;-51
2022/08/18 00:08:28;;;;;;;22.50;11.73;;;19.10;69.50;;;15.21;99.59;95314.78;4913130;29;20086;-49
2022/08/18 00:10:55;;;;;;;21.60;11.50;;;19.10;69.90;;;15.25;99.85;95308.50;4913881;29;20418;-50
2022/08/18 00:13:24;;;;;;;19.00;11.02;;;19.10;69.80;;;15.22;100.00;95303.75;4914722;29;20027;-49
2022/08/18 00:15:55;;;;;;;17.00;11.20;;;19.10;70.00;;;15.23;99.97;95301.84;4913730;29;20130;-50
2022/08/18 00:18:30;;;;;;;16.83;10.80;;;19.00;70.00;;;15.24;99.91;95300.78;4929081;29;20051;-49
2022/08/18 00:21:01;;;;;;;21.63;12.18;;;19.10;70.20;;;15.23;99.48;95307.22;4913722;29;20192;-48
2022/08/18 00:23:28;;;;;;;14.95;10.27;;;19.00;70.10;;;15.19;99.04;95317.75;4914565;29;20066;-49
2022/08/18 00:25:54;;;;;;;19.27;10.48;;;19.00;69.90;;;15.16;99.25;95309.53;4914548;29;20039;-53
2022/08/18 00:28:20;;;;;;;14.95;9.23;;;19.00;70.00;;;15.13;98.67;95302.84;4914396;29;20030;-48
2022/08/18 00:30:46;;;;;;;15.80;9.45;;;19.00;70.00;;;15.10;98.70;95291.94;4914827;29;20042;-52
2022/08/18 00:33:22;;;;;;;12.68;8.55;;;18.90;69.90;;;15.06;98.50;95293.63;4913451;29;20034;-48
2022/08/18 00:35:48;;;;;;;19.40;10.23;;;18.90;70.10;;;15.00;98.38;95282.22;4929244;29;20114;-48
2022/08/18 00:38:14;;;;;;;18.73;10.98;;;18.90;69.90;;;14.95;98.98;95293.06;4913875;29;20024;-50
2022/08/18 00:40:49;;;;;;;16.73;9.98;;;18.90;70.00;;;14.93;98.53;95306.75;4914695;29;20086;-49
2022/08/18 00:43:57;;;;;;;17.38;10.60;;;18.90;70.20;;;14.88;98.40;95314.88;4914783;29;20059;-49
2022/08/18 00:46:36;;;;;;;21.45;10.05;;;18.80;70.20;;;14.85;99.21;95309.31;4913326;29;20058;-52
2022/08/18 00:49:15;;;;;;;18.08;11.20;;;18.80;70.20;;;14.85;99.47;95288.66;4909826;29;20035;-53
2022/08/18 00:51:52;;;;;;;17.02;9.48;;;18.70;70.30;;;14.84;98.83;95278.25;4895565;29;20023;-52
2022/08/18 00:54:29;;;;;;;19.48;10.18;;;18.70;70.20;;;14.78;98.55;95291.75;4894270;29;20039;-51
2022/08/18 00:57:05;;;;;;;18.05;9.82;;;18.70;70.30;;;14.74;98.79;95284.63;4893696;29;20155;-51
2022/08/18 01:00:12;;;;;;;21.08;10.98;;;18.60;70.30;;;14.71;99.37;95282.53;4878677;29;20067;-51
2022/08/18 01:02:48;;;;;;;18.25;10.48;;;18.60;70.40;;;14.68;98.67;95285.81;4895577;29;20043;-52
2022/08/18 01:05:39;;;;;;;19.10;9.70;;;18.60;70.30;;;14.61;98.25;95290.78;4894447;29;20115;-50
2022/08/18 01:08:25;;;;;;;19.40;10.13;;;18.60;70.40;;;14.57;99.39;95283.31;4902104;29;20027;-47
2022/08/18 01:10:54;;;;;;;27.58;11.20;;;18.50;70.50;;;14.58;99.78;95282.22;4912854;29;20479;-50
2022/08/18 01:13:29;;;;;;;20.52;11.40;;;18.50;70.40;;;14.54;99.49;95283.09;4912967;29;20027;-49
2022/08/18 01:21:49;;;;;;;21.50;11.63;;;18.50;70.60;;;14.52;99.70;95277.25;4912788;29;20051;-49
2022/08/18 01:21:49;;;;;;;25.90;12.88;;;18.40;70.60;;;14.46;100.00;95273.03;4913789;29;20038;-47
2022/08/18 01:25:58;;;;;;;24.52;12.82;;;18.40;70.90;;;14.47;100.00;95269.28;4913118;29;20028;-47
2022/08/18 01:27:16;;;;;;;27.27;12.75;;;18.40;70.90;;;14.46;100.00;95265.81;4913411;29;20035;-49
2022/08/18 01:29:56;;;;;;;26.10;12.90;;;18.40;70.90;;;14.48;100.00;95266.31;4914149;29;20387;-49
2022/08/18 01:32:22;;;;;;;24.05;12.55;;;18.40;71.10;;;14.49;100.00;95259.06;4913928;29;20035;-47
2022/08/18 01:34:51;;;;;;;25.95;12.35;;;18.40;71.00;;;14.49;100.00;95259.06;4913908;29;20028;-50
2022/08/18 01:37:40;;;;;;;23.52;12.70;;;18.40;71.10;;;14.49;100.00;95254.50;4927622;29;20078;-50
2022/08/18 01:40:14;;;;;;;24.05;12.32;;;18.40;71.20;;;14.50;100.00;95250.72;4913102;29;20023;-47
2022/08/18 01:42:42;;;;;;;20.13;11.73;;;18.40;71.20;;;14.50;100.00;95255.28;4912390;29;20038;-50
2022/08/18 01:45:09;;;;;;;22.38;12.10;;;18.40;71.10;;;14.49;100.00;95245.66;4912554;29;20031;-48
2022/08/18 01:47:39;;;;;;;28.42;12.27;;;18.40;71.20;;;14.49;100.00;95249.13;4909142;29;20024;-47
2022/08/18 01:50:12;;;;;;;21.02;11.52;;;18.40;71.30;;;14.50;100.00;95245.34;4900359;29;20034;-53
2022/08/18 01:52:40;;;;;;;;;;;18.40;71.40;;;14.49;100.00;95249.13;4897893;29;20034;-47
2022/08/18 01:55:08;;;;;;;21.70;11.10;;;18.40;70.70;;;14.47;100.00;95250.50;4913854;29;19950;-47
2022/08/18 01:57:41;;;;;;;28.00;11.85;;;18.40;70.90;;;14.46;100.00;95248.94;4913177;29;20422;-50
2022/08/18 02:00:11;;;;;;;23.42;11.80;;;18.40;71.30;;;14.48;100.00;95238.72;4912986;29;20039;-50
2022/08/18 02:02:40;;;;;;;21.85;11.95;;;18.40;71.20;;;14.47;100.00;95229.88;4912585;29;20027;-48
2022/08/18 02:05:23;;;;;;;19.15;10.85;;;18.40;71.30;;;14.48;100.00;95228.00;4896712;29;20053;-48
2022/08/18 02:07:49;;;;;;;22.67;11.77;;;18.40;71.60;;;14.50;100.00;95215.88;4912598;29;20518;-50
2022/08/18 02:10:16;;;;;;;21.20;11.52;;;18.40;71.30;;;14.49;100.00;95214.28;4928485;29;20078;-49
2022/08/18 02:12:49;;;;;;;19.75;11.23;;;18.40;71.40;;;14.47;100.00;95205.75;4928957;29;20054;-48
2022/08/18 02:15:14;;;;;;;19.48;11.43;;;18.40;71.60;;;14.52;100.00;95213.72;4914036;29;20020;-50
2022/08/18 02:17:44;;;;;;;17.83;10.45;;;18.40;71.60;;;14.51;100.00;95214.81;4896210;29;20034;-46
2022/08/18 02:20:23;;;;;;;19.77;11.27;;;18.40;71.70;;;14.51;100.00;95208.69;4912113;29;20119;-50
2022/08/18 02:22:57;;;;;;;18.40;10.43;;;18.40;71.90;;;14.50;100.00;95207.81;4913066;29;20390;-47
2022/08/18 02:25:26;;;;;;;20.15;11.20;;;18.40;71.90;;;14.49;100.00;95206.25;4900137;29;20031;-49
2022/08/18 02:27:52;;;;;;;18.65;10.70;;;18.40;71.90;;;14.46;100.00;95200.69;4916694;29;20509;-46
2022/08/18 02:30:24;;;;;;;19.35;11.18;;;18.30;71.70;;;14.46;100.00;95201.47;4931363;29;20031;-51
2022/08/18 02:32:50;;;;;;;20.63;10.63;;;18.30;72.00;;;14.46;100.00;95198.03;4915648;29;20035;-49
2022/08/18 02:35:16;;;;;;;21.98;11.23;;;18.30;71.70;;;14.43;100.00;95201.28;4916685;29;20077;-46
2022/08/18 02:37:46;;;;;;;21.20;11.77;;;18.30;71.70;;;14.39;100.00;95211.03;4915101;29;20038;-48
2022/08/18 02:40:15;;;;;;;25.38;12.15;;;18.30;71.70;;;14.37;100.00;95208.63;4916861;29;20019;-46
2022/08/18 02:42:46;;;;;;;24.60;12.80;;;18.30;71.80;;;14.33;100.00;95210.31;4916509;29;20038;-50
2022/08/18 02:45:13;;;;;;;24.50;11.98;;;18.20;71.80;;;14.30;100.00;95205.56;4915142;29;20749;-47
2022/08/18 02:47:43;;;;;;;24.50;12.20;;;18.20;71.80;;;14.27;100.00;95201.59;4915979;29;20143;-47
2022/08/18 02:50:11;;;;;;;20.85;11.40;;;18.20;71.90;;;14.26;100.00;95189.28;4896829;29;20616;-47
2022/08/18 02:52:40;;;;;;;26.00;11.85;;;18.20;71.90;;;14.28;100.00;95187.09;4912304;29;20063;-46
2022/08/18 02:55:07;;;;;;;28.15;13.00;;;18.20;72.00;;;14.28;100.00;95183.63;4896900;29;20020;-48
2022/08/18 02:57:32;;;;;;;29.42;13.68;;;18.20;72.10;;;14.27;100.00;95176.69;4895683;29;20088;-50
2022/08/18 03:00:00;;;;;;;32.42;14.48;;;18.20;72.10;;;14.24;100.00;95178.06;4880822;29;20043;-49
2022/08/18 03:02:25;;;;;;;27.70;13.65;;;18.20;72.20;;;14.26;100.00;95167.84;4897336;29;20024;-48
2022/08/18 03:04:51;;;;;;;38.92;17.75;;;18.20;72.30;;;14.28;100.00;95178.25;4897512;29;20379;-46
2022/08/18 03:07:24;;;;;;;50.65;19.92;;;18.20;72.40;;;14.28;100.00;95191.66;4911315;29;20502;-47
2022/08/18 03:09:55;;;;;;;49.75;19.52;;;18.20;72.60;;;14.28;100.00;95195.13;4911981;29;20027;-46
2022/08/18 03:12:26;;;;;;;45.85;18.17;;;18.20;72.50;;;14.27;100.00;95192.75;4911537;29;20032;-46
2022/08/18 03:14:52;;;;;;;43.50;18.70;;;18.20;72.60;;;14.27;100.00;95201.59;4896096;29;20020;-46
2022/08/18 03:17:18;;;;;;;41.85;17.92;;;18.20;72.60;;;14.30;100.00;95203.66;4892425;29;20024;-46
2022/08/18 03:19:47;;;;;;;48.72;18.98;;;18.20;72.60;;;14.30;100.00;95182.22;4896286;29;20028;-47
2022/08/18 03:22:13;;;;;;;42.95;17.70;;;18.20;72.70;;;14.26;100.00;95191.97;4896850;29;20034;-47
2022/08/18 03:24:40;;;;;;;41.15;15.82;;;18.20;72.50;;;14.28;100.00;95191.66;4897274;29;20062;-45
2022/08/18 03:27:07;;;;;;;37.58;16.38;;;18.20;72.70;;;14.31;100.00;95205.25;4896443;29;20058;-45
2022/08/18 03:29:39;;;;;;;48.85;18.17;;;18.20;72.60;;;14.31;100.00;95199.09;4895856;29;20023;-46
2022/08/18 03:32:07;;;;;;;42.90;16.30;;;18.20;72.70;;;14.31;100.00;95196.41;4911389;29;20111;-49
2022/08/18 03:34:33;;;;;;;39.83;15.65;;;18.20;72.60;;;14.30;100.00;95195.63;4896635;29;20020;-47
2022/08/18 03:37:09;;;;;;;34.42;15.90;;;18.30;72.60;;;14.30;100.00;95192.16;4894958;29;20038;-48
2022/08/18 03:39:35;;;;;;;33.55;15.38;;;18.30;72.70;;;14.28;100.00;95188.97;4895779;29;20046;-47
2022/08/18 03:42:01;;;;;;;33.67;15.68;;;18.30;72.50;;;14.25;100.00;95184.22;4915468;29;20586;-47
2022/08/18 03:44:36;;;;;;;39.00;15.48;;;18.30;72.40;;;14.28;100.00;95180.94;4897581;29;20063;-49
2022/08/18 03:47:07;;;;;;;32.92;15.10;;;18.30;72.70;;;14.32;100.00;95173.88;4913052;29;20038;-47
2022/08/18 03:49:35;;;;;;;30.00;14.55;;;18.30;72.60;;;14.35;100.00;95174.09;4884129;29;20557;-51
2022/08/18 03:52:09;;;;;;;39.20;15.93;;;18.30;72.70;;;14.37;100.00;95175.69;4896033;29;20399;-47
2022/08/18 03:54:38;;;;;;;30.27;14.65;;;18.30;72.90;;;14.39;100.00;95184.22;4895101;29;20506;-47
2022/08/18 03:57:07;;;;;;;33.58;14.43;;;18.30;72.70;;;14.39;100.00;95194.94;4895904;29;20060;-48
2022/08/18 03:59:42;;;;;;;52.03;16.70;;;18.30;72.60;;;14.37;100.00;95189.88;4894848;29;20040;-48
2022/08/18 04:02:10;;;;;;;38.83;16.20;;;18.40;72.90;;;14.37;100.00;95203.28;4896102;29;20551;-50
2022/08/18 04:04:37;;;;;;;31.33;15.00;;;18.40;72.70;;;14.38;100.00;95215.56;4896111;29;20039;-50
2022/08/18 04:07:10;;;;;;;38.60;15.65;;;18.40;72.70;;;14.38;100.00;95215.56;4895636;29;20091;-50
2022/08/18 04:09:43;;;;;;;37.72;16.35;;;18.40;72.80;;;14.40;100.00;95224.09;4896372;29;20086;-48
2022/08/18 04:12:14;;;;;;;41.72;16.55;;;18.40;72.80;;;14.43;100.00;95225.41;4894887;29;20443;-51
2022/08/18 04:14:46;;;;;;;42.78;19.10;;;18.40;72.70;;;14.42;100.00;95229.19;4895327;29;20032;-49
2022/08/18 04:17:23;;;;;;;36.28;16.27;;;18.40;72.80;;;14.44;100.00;95233.13;4895577;29;20071;-48
2022/08/18 04:19:53;;;;;;;32.95;15.00;;;18.40;73.00;;;14.41;100.00;95214.19;4894843;29;20036;-47
2022/08/18 04:22:24;;;;;;;32.95;15.60;;;18.50;73.00;;;14.44;100.00;95202.88;4895961;29;20036;-50
2022/08/18 04:24:51;;;;;;;34.45;15.45;;;18.50;73.10;;;14.46;100.00;95201.47;4895662;29;20024;-50
2022/08/18 04:27:22;;;;;;;32.03;15.43;;;18.50;73.00;;;14.47;100.00;95187.00;4894088;29;20467;-46
2022/08/18 04:29:48;;;;;;;35.85;16.50;;;18.50;73.20;;;14.41;100.00;95177.47;4895626;29;20599;-48
2022/08/18 04:32:32;;;;;;;36.45;16.55;;;18.50;73.20;;;14.44;100.00;95149.28;4894512;29;20476;-46
2022/08/18 04:35:02;;;;;;;38.58;16.80;;;18.50;73.50;;;14.42;100.00;95133.50;4910152;29;20024;-46
2022/08/18 04:37:31;;;;;;;30.48;14.90;;;18.50;73.50;;;14.40;100.00;95105.44;4916526;29;20610;-44
2022/08/18 04:39:58;;;;;;;35.13;15.70;;;18.50;73.40;;;14.41;100.00;95064.13;4907879;29;20081;-45
2022/08/18 04:42:27;;;;;;;40.20;17.67;;;18.50;73.50;;;14.41;100.00;95027.41;4911134;29;20028;-44
2022/08/18 04:44:53;;;;;;;43.50;18.65;;;18.50;73.60;;;14.44;100.00;95000.00;4911045;29;20501;-44
2022/08/18 04:47:21;;;;;;;47.00;19.75;;;18.50;73.50;;;14.46;100.00;95047.97;4908609;29;20123;-44
2022/08/18 04:49:48;;;;;;;44.22;19.10;;;18.50;73.60;;;14.53;100.00;95092.03;4911054;29;20023;-46
2022/08/18 04:55:00;;;;;;;47.50;19.33;;;18.50;73.60;;;14.67;100.00;95123.38;4907406;29;20031;-46
2022/08/18 04:57:32;;;;;;;43.80;18.80;;;18.60;73.60;;;14.70;100.00;95130.81;4910884;29;20035;-46
2022/08/18 05:00:07;;;;;;;48.25;20.02;;;18.60;73.60;;;14.72;100.00;95142.03;4909246;29;20027;-45
2022/08/18 05:02:33;;;;;;;43.58;19.65;;;18.70;73.60;;;14.72;100.00;95150.84;4905372;29;20028;-45
2022/08/18 05:05:04;;;;;;;45.55;18.15;;;18.70;73.40;;;14.72;100.00;95158.13;4904319;29;20345;-47
2022/08/18 05:07:35;;;;;;;41.38;18.02;;;18.70;73.40;;;14.75;100.00;95173.59;4912524;29;20050;-47
2022/08/18 05:10:01;;;;;;;41.20;16.85;;;18.80;73.40;;;14.77;100.00;95176.78;4928286;29;20023;-44
2022/08/18 05:12:28;;;;;;;35.30;16.92;;;18.80;73.30;;;14.80;100.00;95186.91;4912303;29;20110;-46
2022/08/18 05:14:55;;;;;;;35.80;15.77;;;18.80;73.30;;;14.84;100.00;95181.72;4908682;29;20019;-48
2022/08/18 05:17:25;;;;;;;37.17;16.58;;;18.80;73.30;;;14.83;100.00;95188.97;4912177;29;20124;-48
2022/08/18 05:19:51;;;;;;;33.88;13.68;;;18.90;73.30;;;14.86;100.00;95180.34;4895065;29;20101;-49
2022/08/18 05:22:19;;;;;;;33.67;14.93;;;18.90;73.30;;;14.94;100.00;95176.13;4893627;29;20043;-48
2022/08/18 05:24:46;;;;;;;27.60;14.48;;;19.00;73.20;;;14.97;100.00;95172.84;4895001;29;20105;-46
2022/08/18 05:27:18;;;;;;;35.35;15.38;;;19.00;73.20;;;15.01;100.00;95181.88;4893471;29;20044;-47
2022/08/18 05:29:44;;;;;;;28.42;15.02;;;19.10;73.20;;;15.04;100.00;95183.97;4893762;29;20035;-44
2022/08/18 05:32:10;;;;;;;30.27;14.60;;;19.20;73.00;;;15.09;100.00;95188.44;4909383;29;20036;-49
2022/08/18 05:34:36;;;;;;;30.13;14.98;;;19.20;72.90;;;15.12;100.00;95198.56;4902641;29;20096;-47
2022/08/18 05:37:32;;;;;;;37.58;19.08;;;19.30;72.90;;;15.16;100.00;95207.56;4909693;29;20028;-46
2022/08/18 05:40:07;;;;;;;37.08;17.77;;;19.30;73.10;;;15.23;100.00;95213.31;4893903;29;20511;-47
2022/08/18 05:42:40;;;;;;;57.88;24.65;;;19.40;73.00;;;15.28;100.00;95218.56;4893583;29;20305;-51
2022/08/18 05:45:17;;;;;;;55.10;25.15;;;19.50;73.10;;;15.34;100.00;95211.22;4894058;29;20383;-45
2022/08/18 05:47:43;;;;;;;69.85;27.88;;;19.60;73.10;;;15.38;100.00;95218.34;4893809;29;20446;-47
2022/08/18 05:50:19;;;;;;;79.22;28.80;;;19.60;72.90;;;15.41;100.00;95207.00;4894486;29;20036;-47
2022/08/18 05:52:52;;;;;;;66.05;25.42;;;19.70;72.90;;;15.55;100.00;95208.84;4893553;29;20070;-48
2022/08/18 05:58:45;;;;;;;62.13;26.48;;;20.00;72.00;;;15.82;100.00;95198.00;4894736;29;19966;-48
2022/08/18 06:01:22;;;;;;;47.78;23.55;;;20.30;72.10;;;16.19;100.00;95206.72;4907412;29;20031;-47
2022/08/18 06:04:14;;;;;;;28.00;19.20;;;20.60;72.10;;;16.65;100.00;95218.94;4900644;29;20394;-48
2022/08/18 06:06:46;;;;;;;21.00;16.15;;;21.10;71.90;;;17.01;98.70;95220.63;4915925;29;20039;-51
2022/08/18 06:09:55;;;;;;;19.80;16.10;;;21.40;71.30;;;17.43;97.65;95232.56;4905942;29;20048;-50
2022/08/18 06:12:42;;;;;;;19.63;16.55;;;21.80;71.00;;;17.70;93.46;95239.53;4917559;29;20043;-47
2022/08/18 06:15:45;;;;;;;23.02;17.83;;;22.30;70.90;;;18.04;91.06;95244.13;4917364;29;20130;-47
2022/08/18 06:19:11;;;;;;;18.45;16.05;;;22.70;70.30;;;18.38;89.81;95249.75;4915799;29;20040;-49
2022/08/18 06:22:42;;;;;;;20.02;16.52;;;23.20;69.60;;;18.62;85.47;95254.59;4917185;29;20078;-46
2022/08/18 06:25:42;;;;;;;17.92;16.02;;;23.60;68.90;;;18.57;85.05;95244.75;4916976;29;20200;-46
2022/08/18 06:28:14;;;;;;;17.95;14.77;;;23.60;68.10;;;18.38;84.85;95253.25;4916834;29;20027;-46
2022/08/18 06:31:45;;;;;;;19.33;16.02;;;23.50;67.40;;;18.31;85.28;95252.16;4915731;29;20039;-49
2022/08/18 06:35:12;;;;;;;18.30;15.77;;;23.30;68.10;;;18.08;84.77;95249.66;4914062;29;20055;-47
2022/08/18 06:38:40;;;;;;;16.42;13.82;;;23.20;66.90;;;17.95;85.45;95264.88;4897907;29;20043;-48
2022/08/18 06:41:22;;;;;;;17.75;13.40;;;23.00;66.60;;;17.97;86.29;95267.28;4897820;29;20392;-50
2022/08/18 06:44:03;;;;;;;18.90;13.63;;;22.90;66.60;;;17.96;86.10;95266.50;4897822;29;20028;-47
2022/08/18 06:46:43;;;;;;;17.77;13.13;;;22.90;66.40;;;17.86;86.91;95277.56;4896374;29;20090;-49
2022/08/18 06:49:53;;;;;;;17.30;13.45;;;23.00;66.40;;;17.89;86.66;95276.16;4897519;29;20023;-47
2022/08/18 06:52:50;;;;;;;13.15;11.15;;;23.00;66.20;;;17.98;85.54;95269.63;4897533;29;20075;-49
2022/08/18 06:55:37;;;;;;;13.43;12.02;;;23.00;66.00;;;18.01;84.76;95263.63;4896075;29;20387;-46
2022/08/18 06:58:16;;;;;;;14.02;11.15;;;23.10;65.90;;;18.05;84.58;95263.78;4895963;29;20055;-47
2022/08/18 07:01:06;;;;;;;12.63;11.30;;;23.10;65.60;;;18.19;85.60;95274.38;4899626;29;20055;-49
2022/08/18 07:03:42;;;;;;;12.60;11.23;;;23.10;65.60;;;18.14;84.63;95288.81;4914793;29;20055;-48
2022/08/18 07:06:20;;;;;;;14.00;12.15;;;23.10;65.40;;;18.13;84.38;95286.44;4899473;29;20566;-50
2022/08/18 07:09:14;;;;;;;13.93;12.52;;;23.10;65.00;;;18.25;84.04;95286.56;4915280;29;20459;-50
2022/08/18 07:11:42;;;;;;;13.13;11.18;;;23.10;64.90;;;18.32;84.66;95270.69;4916077;29;20027;-50
2022/08/18 07:14:24;;;;;;;13.70;10.88;;;23.10;64.90;;;18.31;84.43;95262.94;4916244;29;20485;-48
2022/08/18 07:17:17;;;;;;;11.18;10.07;;;23.10;64.90;;;18.29;83.50;95278.63;4914891;29;20483;-46
2022/08/18 07:20:16;;;;;;;12.15;10.85;;;23.10;64.70;;;18.32;83.90;95280.69;4915543;29;20126;-47
2022/08/18 07:22:57;;;;;;;12.98;10.52;;;23.00;65.60;;;18.35;84.14;95282.75;4914749;29;20035;-50
2022/08/18 07:25:42;;;;;;;12.88;11.18;;;23.00;64.80;;;18.29;83.02;95282.13;4915293;29;20020;-51
2022/08/18 07:28:39;;;;;;;14.38;11.40;;;23.00;64.50;;;18.30;82.95;95283.72;4914258;29;20457;-48
2022/08/18 07:31:36;;;;;;;13.10;11.73;;;23.10;64.30;;;18.40;82.98;95296.06;4914561;29;20029;-52
2022/08/18 07:34:14;;;;;;;15.57;13.15;;;23.20;64.20;;;18.37;81.46;95302.09;4915676;29;20034;-46
2022/08/18 07:37:31;;;;;;;15.10;13.50;;;23.20;63.60;;;18.55;81.81;95297.44;4914292;29;20062;-52
2022/08/18 07:40:57;;;;;;;14.93;13.38;;;23.20;63.60;;;18.68;81.20;95291.84;4900446;29;20039;-48
2022/08/18 07:43:50;;;;;;;16.95;14.15;;;23.50;63.40;;;18.90;80.15;95288.16;4914347;29;20078;-45
2022/08/18 07:46:39;;;;;;;15.52;13.90;;;23.80;62.60;;;19.13;79.05;95277.88;4915393;29;20503;-49
2022/08/18 07:49:06;;;;;;;16.80;13.65;;;24.10;62.00;;;19.59;79.23;95289.66;4913877;29;20115;-50
2022/08/18 07:52:05;;;;;;;15.02;13.55;;;24.70;61.50;;;20.22;75.08;95286.94;4915479;29;20036;-50
2022/08/18 07:55:15;;;;;;;15.02;13.52;;;25.40;60.70;;;20.61;73.38;95303.75;4914485;29;20031;-46
2022/08/18 07:58:25;;;;;;;15.07;13.55;;;25.90;59.90;;;20.97;73.08;95294.13;4900628;29;20031;-47
2022/08/18 08:01:39;;;;;;;14.35;12.95;;;26.20;59.50;;;20.97;72.14;95262.41;4915138;29;20134;-49
2022/08/18 08:04:42;;;;;;;14.30;12.80;;;26.30;58.80;;;20.92;70.41;95251.00;4914988;29;20028;-49
2022/08/18 08:08:23;;;;;;;14.88;13.38;;;26.20;58.20;;;20.73;70.51;95254.28;4915067;29;20390;-48
2022/08/18 08:11:48;;;;;;;14.20;12.80;;;26.10;57.80;;;20.59;71.14;95262.72;4881589;29;20031;-47
2022/08/18 08:14:43;;;;;;;12.40;11.10;;;26.10;57.30;;;20.70;70.73;95263.06;4893116;29;20051;-51
2022/08/18 08:18:11;;;;;;;12.38;11.07;;;26.10;56.90;;;21.04;69.09;95245.59;4896106;29;20107;-46
2022/08/18 08:21:15;;;;;;;10.70;9.57;;;26.60;56.60;;;21.51;66.33;95244.34;4880982;29;20048;-49
2022/08/18 08:24:23;;;;;;;10.27;9.32;;;27.40;55.80;;;22.00;64.42;95242.25;4894791;29;20024;-49
2022/08/18 08:27:18;;;;;;;10.18;9.15;;;28.10;55.30;;;22.11;64.64;95247.94;4898714;29;20054;-48
2022/08/18 08:30:14;;;;;;;10.25;8.40;;;28.60;53.60;;;22.69;61.83;95245.63;4906342;29;20038;-48
2022/08/18 08:32:55;;;;;;;10.13;8.43;;;29.10;52.90;;;22.95;65.77;95230.75;4916657;29;20502;-53
2022/08/18 08:36:10;;;;;;;8.18;7.32;;;29.60;52.10;;;23.38;57.91;95227.09;4900272;29;20032;-48
2022/08/18 08:39:05;;;;;;;8.32;7.45;;;30.00;51.20;;;23.80;58.30;95228.38;4912865;29;20035;-46
2022/08/18 08:42:24;;;;;;;7.93;7.15;;;30.50;50.40;;;24.37;57.77;95254.72;4913176;29;20039;-48
2022/08/18 08:45:03;;;;;;;8.50;7.63;;;31.00;49.90;;;24.65;56.35;95259.94;4912179;29;20041;-50
2022/08/18 08:47:50;;;;;;;8.60;7.80;;;31.10;48.80;;;24.54;55.33;95267.13;4894453;29;20039;-50
2022/08/18 08:50:28;;;;;;;8.40;7.70;;;31.00;48.10;;;24.26;56.38;95270.09;4904575;29;20122;-51
2022/08/18 08:53:37;;;;;;;9.55;8.65;;;30.70;47.60;;;24.31;56.61;95271.72;4897748;29;20110;-46
2022/08/18 08:56:15;;;;;;;10.23;9.05;;;30.40;48.00;;;24.13;58.47;95269.44;4912953;29;20135;-49
2022/08/18 08:59:14;;;;;;;11.30;9.35;;;30.20;47.60;;;24.65;57.48;95262.66;4912460;29;20051;-47
2022/08/18 09:02:12;;;;;;;8.93;8.02;;;30.60;47.20;;;24.45;58.78;95253.75;4914180;29;20114;-52
2022/08/18 09:05:05;;;;;;;9.10;8.18;;;30.80;47.00;;;24.51;55.20;95240.63;4914005;29;20059;-49
2022/08/18 09:08:54;;;;;;;8.70;7.80;;;30.80;46.50;;;24.90;54.79;95244.00;4897095;29;20438;-47
2022/08/18 09:12:23;;;;;;;8.50;6.35;;;31.20;46.10;;;25.36;51.42;95245.91;4912784;29;20039;-49
2022/08/18 09:15:42;;;;;;;7.30;6.63;;;31.50;45.50;;;25.91;53.98;95259.13;4913870;29;20558;-47
2022/08/18 09:18:33;;;;;;;9.15;7.10;;;32.20;44.80;;;26.30;50.72;95251.41;4909324;29;20056;-47
2022/08/18 09:21:36;;;;;;;8.30;7.50;;;32.90;43.90;;;26.30;49.45;95245.94;4902965;29;20450;-52
2022/08/18 09:24:22;;;;;;;;;;;33.40;43.00;;;26.51;49.19;95238.00;4914432;29;20030;-49
2022/08/18 09:27:42;;;;;;;8.27;6.57;;;33.60;43.30;;;27.14;48.16;95235.41;4913880;29;20001;-48
2022/08/18 09:31:13;;;;;;;8.88;7.13;;;34.20;42.30;;;27.00;49.44;95242.31;4913666;29;20024;-48
2022/08/18 09:33:39;;;;;;;9.07;7.68;;;34.40;41.50;;;26.92;48.09;95235.25;4927853;29;20043;-49
2022/08/18 09:36:55;;;;;;;8.82;8.02;;;34.30;40.40;;;26.88;47.40;95217.25;4917893;29;20399;-47
2022/08/18 09:43:34;;;;;;;9.93;8.30;;;34.10;39.60;;;27.76;47.51;95199.06;4905428;29;20063;-47
2022/08/18 09:46:04;;;;;;;9.90;8.30;;;34.70;40.00;;;27.61;49.17;95204.47;4910505;29;20043;-49
2022/08/18 09:48:40;;;;;;;8.43;7.63;;;35.10;39.30;;;27.40;48.97;95204.34;4917007;29;20065;-49
2022/08/18 09:51:35;;;;;;;9.85;8.25;;;35.10;38.50;;;27.18;47.73;95192.50;4916453;29;20487;-47
2022/08/18 09:54:17;;;;;;;8.52;7.72;;;34.90;38.40;;;27.52;48.51;95195.84;4900633;29;20038;-48
2022/08/18 09:56:49;;;;;;;8.30;7.50;;;35.20;38.10;;;27.59;47.59;95195.09;4916091;29;20031;-47
2022/08/18 09:59:34;;;;;;;;;;;35.20;37.80;;;27.15;48.47;95193.28;4915863;29;20055;-47
2022/08/18 10:02:35;;;;;;;9.60;7.60;;;34.90;38.60;;;27.02;47.46;95200.97;4917363;29;20222;-47
2022/08/18 10:05:20;;;;;;;8.57;7.78;;;34.70;38.10;;;27.34;47.88;95190.25;4915734;29;20082;-47
2022/08/18 10:08:16;;;;;;;9.88;7.90;;;34.70;37.80;;;26.56;49.67;95181.47;4915960;29;20083;-48
2022/08/18 10:11:24;;;;;;;8.95;8.15;;;34.60;37.80;;;26.58;48.34;95169.00;4915719;29;20490;-47
2022/08/18 10:14:28;;;;;;;9.27;8.23;;;34.20;38.00;;;26.48;50.08;95159.56;4917047;29;20266;-47
2022/08/18 10:17:21;;;;;;;9.20;8.30;;;34.00;38.10;;;26.30;50.01;95162.09;4901804;29;20483;-47
2022/08/18 10:20:37;;;;;;;11.60;8.57;;;33.70;38.10;;;26.21;50.80;95158.88;4916699;29;20398;-47
2022/08/18 10:23:09;;;;;;;9.23;8.43;;;33.60;38.50;;;26.29;49.23;95157.81;4917164;29;20039;-49
2022/08/18 10:25:46;;;;;;;10.85;7.72;;;33.40;38.30;;;26.37;52.06;95141.50;4915786;29;20058;-47
2022/08/18 10:28:52;;;;;;;8.88;8.07;;;33.40;38.80;;;26.40;49.86;95152.44;4916332;29;20546;-49
2022/08/18 10:31:22;;;;;;;9.43;8.50;;;33.30;39.10;;;26.07;51.34;95162.28;4915620;29;20031;-48
2022/08/18 10:34:12;;;;;;;9.75;8.52;;;33.30;39.00;;;25.99;51.30;95157.88;4915586;29;20023;-48
2022/08/18 10:36:59;;;;;;;8.90;7.97;;;33.20;38.70;;;26.13;49.88;95154.50;4915842;29;20020;-48
2022/08/18 10:39:41;;;;;;;8.73;7.88;;;33.20;38.50;;;26.07;52.05;95156.81;4915318;29;20066;-50
2022/08/18 10:42:13;;;;;;;8.65;7.95;;;33.10;38.70;;;25.82;53.22;95153.81;4916618;29;20114;-48
2022/08/18 10:44:52;;;;;;;9.25;7.93;;;33.00;38.90;;;25.90;51.07;95140.25;4915829;29;20035;-47
2022/08/18 10:47:41;;;;;;;7.47;6.78;;;33.00;38.90;;;25.74;52.83;95137.72;4900313;29;20055;-48
2022/08/18 10:50:25;;;;;;;8.82;7.93;;;32.90;39.10;;;25.94;51.33;95124.69;4916474;29;20110;-49
2022/08/18 10:53:43;;;;;;;8.57;7.68;;;32.90;39.20;;;25.99;50.21;95122.41;4914766;29;20032;-52
2022/08/18 10:56:51;;;;;;;9.38;7.97;;;32.90;39.00;;;25.84;49.99;95118.75;4917732;28;20565;-47
2022/08/18 10:59:37;;;;;;;8.05;7.30;;;33.00;38.90;;;25.65;51.21;95124.38;4914810;29;20114;-47
2022/08/18 11:02:51;;;;;;;7.80;7.10;;;32.80;38.60;;;25.65;50.25;95107.22;4916267;29;20031;-47
2022/08/18 11:05:26;;;;;;;7.00;6.38;;;32.50;38.70;;;25.46;51.04;95116.34;4916109;29;20051;-48
2022/08/18 11:08:18;;;;;;;8.27;7.25;;;32.30;38.80;;;25.45;51.38;95109.34;4914949;29;20082;-47
2022/08/18 11:10:50;;;;;;;8.30;7.50;;;31.90;39.10;;;25.01;52.50;95105.25;4915119;29;20022;-51
2022/08/18 11:14:13;;;;;;;12.10;7.93;;;31.60;39.40;;;24.79;53.69;95109.59;4914927;29;20028;-47
2022/08/18 11:17:28;;;;;;;7.50;6.80;;;31.10;40.00;;;24.77;54.24;95113.84;4916091;29;20086;-47
2022/08/18 11:19:55;;;;;;;7.18;6.47;;;30.80;40.40;;;24.76;55.87;95115.78;4900650;29;20326;-50
2022/08/18 11:22:57;;;;;;;7.82;6.95;;;30.60;41.20;;;24.62;53.98;95105.44;4914788;29;20051;-47